AEE323 LGIR-LGAV
Flight info
| Callsign | AEE323 |
|---|---|
| Flight time | 0h 35m |
| Altitude | 26000 |
| Route | EPALO M749 DIRMI UM749 MIL UY144 BADEL |
| Aircraft | A320/M-SDE3FGHIRWY/LB1 |
Departure
| Time | 2026-05-04 21:30 |
|---|---|
| Airport | Heraklion International Nikos Kazantzakis Airport (LGIR) |
Arrival
| Time | 2026-05-04 22:05 |
|---|---|
| Airport | Athens Eleftherios Venizelos International Airport (LGAV) |
| Time | Latitude | Longitude | Altitude | Speed | Heading |
|---|---|---|---|---|---|
| 2026-05-04 21:13 | 35.33907 | 25.17159 | 79 ft | 0 kts | 9° |
| 2026-05-04 21:23 | 35.33908 | 25.17159 | 79 ft | 0 kts | 9° |
| 2026-05-04 21:23 | 35.33910 | 25.17160 | 79 ft | 1 kts | 9° |
| 2026-05-04 21:24 | 35.33918 | 25.17162 | 83 ft | 2 kts | 9° |
| 2026-05-04 21:24 | 35.33930 | 25.17164 | 83 ft | 0 kts | 9° |
| 2026-05-04 21:24 | 35.33932 | 25.17171 | 80 ft | 1 kts | 70° |
| 2026-05-04 21:25 | 35.33930 | 25.17224 | 81 ft | 12 kts | 90° |
| 2026-05-04 21:25 | 35.33922 | 25.17364 | 85 ft | 21 kts | 94° |
| 2026-05-04 21:25 | 35.33909 | 25.17552 | 89 ft | 22 kts | 95° |
| 2026-05-04 21:25 | 35.33895 | 25.17741 | 95 ft | 22 kts | 94° |
| 2026-05-04 21:26 | 35.33882 | 25.17928 | 98 ft | 23 kts | 96° |
| 2026-05-04 21:26 | 35.33869 | 25.18121 | 102 ft | 23 kts | 94° |
| 2026-05-04 21:26 | 35.33855 | 25.18317 | 106 ft | 24 kts | 95° |
| 2026-05-04 21:26 | 35.33841 | 25.18521 | 109 ft | 24 kts | 95° |
| 2026-05-04 21:27 | 35.33826 | 25.18729 | 113 ft | 25 kts | 96° |
| 2026-05-04 21:27 | 35.33818 | 25.18868 | 116 ft | 0 kts | 94° |
| 2026-05-04 21:28 | 35.33817 | 25.18884 | 117 ft | 6 kts | 94° |
| 2026-05-04 21:28 | 35.33828 | 25.18951 | 116 ft | 9 kts | 58° |
| 2026-05-04 21:28 | 35.33874 | 25.19012 | 115 ft | 11 kts | 40° |
| 2026-05-04 21:29 | 35.33911 | 25.18975 | 116 ft | 0 kts | 272° |
| 2026-05-04 21:29 | 35.33912 | 25.18952 | 116 ft | 13 kts | 274° |
| 2026-05-04 21:29 | 35.33944 | 25.18492 | 105 ft | 100 kts | 275° |
| 2026-05-04 21:30 | 35.34021 | 25.17350 | 142 ft | 161 kts | 272° |
| 2026-05-04 21:30 | 35.34115 | 25.15986 | 1005 ft | 161 kts | 279° |
| 2026-05-04 21:30 | 35.34678 | 25.14841 | 2037 ft | 160 kts | 322° |
| 2026-05-04 21:30 | 35.35794 | 25.14387 | 2425 ft | 183 kts | 346° |
| 2026-05-04 21:31 | 35.38528 | 25.13613 | 3090 ft | 223 kts | 341° |
| 2026-05-04 21:31 | 35.40060 | 25.13064 | 3677 ft | 239 kts | 341° |
| 2026-05-04 21:31 | 35.41677 | 25.12453 | 4516 ft | 246 kts | 341° |
| 2026-05-04 21:32 | 35.43315 | 25.11814 | 5475 ft | 248 kts | 341° |
| 2026-05-04 21:32 | 35.44968 | 25.11167 | 6442 ft | 250 kts | 342° |
| 2026-05-04 21:32 | 35.46639 | 25.10518 | 7327 ft | 253 kts | 342° |
| 2026-05-04 21:32 | 35.48336 | 25.09866 | 8146 ft | 258 kts | 342° |
| 2026-05-04 21:33 | 35.50064 | 25.09206 | 8977 ft | 262 kts | 342° |
| 2026-05-04 21:33 | 35.51819 | 25.08539 | 9829 ft | 266 kts | 342° |
| 2026-05-04 21:33 | 35.53611 | 25.07863 | 10460 ft | 277 kts | 342° |
| 2026-05-04 21:33 | 35.55524 | 25.07140 | 10707 ft | 300 kts | 342° |
| 2026-05-04 21:34 | 35.57591 | 25.06357 | 10880 ft | 322 kts | 342° |
| 2026-05-04 21:34 | 35.59809 | 25.05514 | 11095 ft | 342 kts | 342° |
| 2026-05-04 21:34 | 35.62105 | 25.04638 | 11647 ft | 349 kts | 342° |
| 2026-05-04 21:34 | 35.64446 | 25.03748 | 12284 ft | 353 kts | 342° |
| 2026-05-04 21:35 | 35.66809 | 25.02851 | 12917 ft | 358 kts | 343° |
| 2026-05-04 21:35 | 35.69198 | 25.01942 | 13570 ft | 362 kts | 343° |
| 2026-05-04 21:35 | 35.71617 | 25.01018 | 14186 ft | 366 kts | 342° |
| 2026-05-04 21:35 | 35.74043 | 24.99998 | 14744 ft | 370 kts | 340° |
| 2026-05-04 21:36 | 35.76463 | 24.98879 | 15354 ft | 373 kts | 339° |
| 2026-05-04 21:36 | 35.78860 | 24.97722 | 15958 ft | 375 kts | 339° |
| 2026-05-04 21:36 | 35.81298 | 24.96532 | 16554 ft | 378 kts | 338° |
| 2026-05-04 21:36 | 35.83758 | 24.95335 | 17163 ft | 382 kts | 339° |
| 2026-05-04 21:37 | 35.86242 | 24.94142 | 17791 ft | 385 kts | 339° |
| 2026-05-04 21:37 | 35.88754 | 24.92951 | 18431 ft | 388 kts | 339° |
| 2026-05-04 21:37 | 35.91283 | 24.91758 | 18964 ft | 391 kts | 339° |
| 2026-05-04 21:37 | 35.93834 | 24.90559 | 19489 ft | 394 kts | 339° |
| 2026-05-04 21:38 | 35.96405 | 24.89350 | 20037 ft | 397 kts | 339° |
| 2026-05-04 21:38 | 35.98997 | 24.88127 | 20486 ft | 402 kts | 339° |
| 2026-05-04 21:38 | 36.01626 | 24.86881 | 20942 ft | 406 kts | 339° |
| 2026-05-04 21:38 | 36.04273 | 24.85628 | 21392 ft | 409 kts | 339° |
| 2026-05-04 21:39 | 36.06938 | 24.84367 | 21825 ft | 412 kts | 339° |
| 2026-05-04 21:39 | 36.09630 | 24.83092 | 22243 ft | 415 kts | 339° |
| 2026-05-04 21:39 | 36.12336 | 24.81812 | 22647 ft | 418 kts | 339° |
| 2026-05-04 21:39 | 36.15071 | 24.80518 | 23058 ft | 421 kts | 339° |
| 2026-05-04 21:40 | 36.17814 | 24.79217 | 23449 ft | 424 kts | 339° |
| 2026-05-04 21:40 | 36.20578 | 24.77906 | 23817 ft | 427 kts | 339° |
| 2026-05-04 21:40 | 36.23357 | 24.76585 | 24151 ft | 429 kts | 339° |
| 2026-05-04 21:40 | 36.26146 | 24.75257 | 24499 ft | 430 kts | 339° |
| 2026-05-04 21:41 | 36.28939 | 24.73925 | 24875 ft | 431 kts | 339° |
| 2026-05-04 21:41 | 36.31743 | 24.72591 | 25253 ft | 431 kts | 338° |
| 2026-05-04 21:41 | 36.34545 | 24.71256 | 25637 ft | 432 kts | 338° |
| 2026-05-04 21:41 | 36.37350 | 24.69914 | 25996 ft | 432 kts | 338° |
| 2026-05-04 21:42 | 36.40153 | 24.68572 | 26116 ft | 433 kts | 338° |
| 2026-05-04 21:42 | 36.42947 | 24.67235 | 26140 ft | 437 kts | 338° |
| 2026-05-04 21:42 | 36.45789 | 24.65874 | 26139 ft | 438 kts | 338° |
| 2026-05-04 21:42 | 36.48634 | 24.64514 | 26139 ft | 440 kts | 339° |
| 2026-05-04 21:43 | 36.51502 | 24.63142 | 26136 ft | 442 kts | 339° |
| 2026-05-04 21:43 | 36.54370 | 24.61772 | 26136 ft | 442 kts | 339° |
| 2026-05-04 21:43 | 36.57242 | 24.60399 | 26137 ft | 443 kts | 339° |
| 2026-05-04 21:43 | 36.60123 | 24.59016 | 26136 ft | 443 kts | 339° |
| 2026-05-04 21:44 | 36.62991 | 24.57634 | 26136 ft | 443 kts | 339° |
| 2026-05-04 21:44 | 36.65869 | 24.56246 | 26135 ft | 443 kts | 338° |
| 2026-05-04 21:44 | 36.68744 | 24.54858 | 26131 ft | 443 kts | 339° |
| 2026-05-04 21:44 | 36.71572 | 24.53355 | 26131 ft | 442 kts | 332° |
| 2026-05-04 21:45 | 36.74168 | 24.51290 | 26134 ft | 443 kts | 322° |
| 2026-05-04 21:45 | 36.76432 | 24.48686 | 26126 ft | 445 kts | 313° |
| 2026-05-04 21:45 | 36.78352 | 24.45651 | 26039 ft | 447 kts | 307° |
| 2026-05-04 21:45 | 36.80156 | 24.42477 | 25792 ft | 449 kts | 307° |
| 2026-05-04 21:46 | 36.81950 | 24.39335 | 25547 ft | 450 kts | 307° |
| 2026-05-04 21:46 | 36.83769 | 24.36151 | 25298 ft | 451 kts | 306° |
| 2026-05-04 21:46 | 36.85594 | 24.32955 | 25057 ft | 453 kts | 306° |
| 2026-05-04 21:46 | 36.87422 | 24.29748 | 24822 ft | 454 kts | 306° |
| 2026-05-04 21:47 | 36.89257 | 24.26520 | 24588 ft | 456 kts | 306° |
| 2026-05-04 21:47 | 36.91097 | 24.23274 | 24354 ft | 458 kts | 306° |
| 2026-05-04 21:47 | 36.92941 | 24.20021 | 24122 ft | 459 kts | 306° |
| 2026-05-04 21:47 | 36.94787 | 24.16760 | 23892 ft | 461 kts | 306° |
| 2026-05-04 21:48 | 36.96639 | 24.13482 | 23658 ft | 462 kts | 306° |
| 2026-05-04 21:48 | 36.98497 | 24.10188 | 23383 ft | 463 kts | 306° |
| 2026-05-04 21:48 | 37.00340 | 24.06916 | 22505 ft | 453 kts | 306° |
| 2026-05-04 21:48 | 37.02121 | 24.03747 | 21549 ft | 438 kts | 306° |
| 2026-05-04 21:49 | 37.03870 | 24.00638 | 20619 ft | 436 kts | 306° |
| 2026-05-04 21:49 | 37.05609 | 23.97548 | 19706 ft | 433 kts | 306° |
| 2026-05-04 21:49 | 37.07341 | 23.94474 | 18803 ft | 431 kts | 306° |
| 2026-05-04 21:49 | 37.09064 | 23.91412 | 17820 ft | 428 kts | 306° |
| 2026-05-04 21:50 | 37.10766 | 23.88379 | 16923 ft | 423 kts | 306° |
| 2026-05-04 21:50 | 37.12430 | 23.85411 | 16051 ft | 419 kts | 306° |
| 2026-05-04 21:50 | 37.14102 | 23.82428 | 15192 ft | 416 kts | 306° |
| 2026-05-04 21:50 | 37.15952 | 23.79673 | 14350 ft | 412 kts | 317° |
| 2026-05-04 21:51 | 37.18223 | 23.77526 | 13511 ft | 407 kts | 330° |
| 2026-05-04 21:51 | 37.20781 | 23.76095 | 12816 ft | 399 kts | 342° |
| 2026-05-04 21:51 | 37.23487 | 23.75399 | 12125 ft | 390 kts | 354° |
| 2026-05-04 21:51 | 37.26128 | 23.75402 | 11348 ft | 369 kts | 4° |
| 2026-05-04 21:52 | 37.28582 | 23.75615 | 11026 ft | 338 kts | 3° |
| 2026-05-04 21:52 | 37.30823 | 23.75799 | 10865 ft | 309 kts | 3° |
| 2026-05-04 21:52 | 37.32887 | 23.75838 | 10746 ft | 289 kts | 356° |
| 2026-05-04 21:52 | 37.34857 | 23.75670 | 10595 ft | 279 kts | 356° |
| 2026-05-04 21:53 | 37.36782 | 23.75511 | 10348 ft | 274 kts | 356° |
| 2026-05-04 21:53 | 37.38666 | 23.75361 | 10115 ft | 269 kts | 356° |
| 2026-05-04 21:53 | 37.40517 | 23.75217 | 9980 ft | 266 kts | 356° |
| 2026-05-04 21:53 | 37.42359 | 23.75075 | 9847 ft | 265 kts | 356° |
| 2026-05-04 21:54 | 37.44203 | 23.74933 | 9711 ft | 265 kts | 356° |
| 2026-05-04 21:54 | 37.46049 | 23.74792 | 9576 ft | 266 kts | 357° |
| 2026-05-04 21:54 | 37.47896 | 23.74652 | 9449 ft | 266 kts | 357° |
| 2026-05-04 21:54 | 37.49739 | 23.74509 | 9313 ft | 263 kts | 357° |
| 2026-05-04 21:55 | 37.51534 | 23.74369 | 9180 ft | 254 kts | 357° |
| 2026-05-04 21:55 | 37.53267 | 23.74233 | 9048 ft | 245 kts | 357° |
| 2026-05-04 21:55 | 37.54940 | 23.74101 | 8904 ft | 237 kts | 357° |
| 2026-05-04 21:55 | 37.56567 | 23.73971 | 8491 ft | 233 kts | 357° |
| 2026-05-04 21:56 | 37.58182 | 23.73844 | 7975 ft | 232 kts | 358° |
| 2026-05-04 21:56 | 37.59786 | 23.73720 | 7473 ft | 230 kts | 358° |
| 2026-05-04 21:56 | 37.61372 | 23.73597 | 7033 ft | 226 kts | 358° |
| 2026-05-04 21:56 | 37.62931 | 23.73474 | 6562 ft | 223 kts | 359° |
| 2026-05-04 21:57 | 37.64487 | 23.73353 | 6167 ft | 224 kts | 359° |
| 2026-05-04 21:57 | 37.66039 | 23.73232 | 5867 ft | 223 kts | 358° |
| 2026-05-04 21:57 | 37.67584 | 23.73111 | 5545 ft | 222 kts | 358° |
| 2026-05-04 21:57 | 37.69137 | 23.73133 | 5108 ft | 225 kts | 12° |
| 2026-05-04 21:58 | 37.70565 | 23.73770 | 5014 ft | 215 kts | 28° |
| 2026-05-04 21:58 | 37.71768 | 23.74831 | 4892 ft | 206 kts | 36° |
| 2026-05-04 21:58 | 37.72886 | 23.75886 | 4869 ft | 191 kts | 35° |
| 2026-05-04 21:58 | 37.73870 | 23.76816 | 4920 ft | 172 kts | 35° |
| 2026-05-04 21:59 | 37.74791 | 23.77685 | 4657 ft | 157 kts | 35° |
| 2026-05-04 21:59 | 37.75612 | 23.78461 | 4452 ft | 141 kts | 34° |
| 2026-05-04 21:59 | 37.76383 | 23.79189 | 4264 ft | 137 kts | 34° |
| 2026-05-04 21:59 | 37.76902 | 23.79678 | 4142 ft | 137 kts | 34° |
| 2026-05-04 22:00 | 37.77665 | 23.80400 | 3950 ft | 136 kts | 34° |
| 2026-05-04 22:00 | 37.78425 | 23.81118 | 3772 ft | 136 kts | 34° |
| 2026-05-04 22:00 | 37.79172 | 23.81824 | 3593 ft | 136 kts | 34° |
| 2026-05-04 22:00 | 37.79934 | 23.82545 | 3415 ft | 140 kts | 34° |
| 2026-05-04 22:01 | 37.80775 | 23.83339 | 3222 ft | 157 kts | 34° |
| 2026-05-04 22:01 | 37.81662 | 23.84180 | 2998 ft | 161 kts | 35° |
| 2026-05-04 22:01 | 37.82562 | 23.85032 | 2787 ft | 162 kts | 34° |
| 2026-05-04 22:01 | 37.83455 | 23.85879 | 2556 ft | 159 kts | 34° |
| 2026-05-04 22:02 | 37.84335 | 23.86713 | 2346 ft | 158 kts | 34° |
| 2026-05-04 22:02 | 37.85215 | 23.87547 | 2130 ft | 158 kts | 34° |
| 2026-05-04 22:02 | 37.86092 | 23.88385 | 1921 ft | 158 kts | 34° |
| 2026-05-04 22:02 | 37.86968 | 23.89226 | 1698 ft | 159 kts | 34° |
| 2026-05-04 22:03 | 37.87849 | 23.90062 | 1481 ft | 158 kts | 35° |
| 2026-05-04 22:03 | 37.88717 | 23.90884 | 1298 ft | 158 kts | 35° |
| 2026-05-04 22:03 | 37.89592 | 23.91711 | 1049 ft | 153 kts | 35° |
| 2026-05-04 22:03 | 37.90414 | 23.92486 | 823 ft | 144 kts | 36° |
| 2026-05-04 22:04 | 37.91206 | 23.93239 | 651 ft | 141 kts | 35° |
| 2026-05-04 22:04 | 37.91991 | 23.93987 | 483 ft | 141 kts | 35° |
| 2026-05-04 22:04 | 37.92775 | 23.94730 | 325 ft | 140 kts | 36° |
| 2026-05-04 22:04 | 37.93483 | 23.95402 | 284 ft | 108 kts | 37° |
| 2026-05-04 22:05 | 37.93944 | 23.95838 | 280 ft | 58 kts | 37° |
| 2026-05-04 22:05 | 37.94170 | 23.95990 | 284 ft | 31 kts | 13° |
| 2026-05-04 22:05 | 37.94325 | 23.95996 | 295 ft | 13 kts | 308° |
| 2026-05-04 22:05 | 37.94355 | 23.95893 | 300 ft | 13 kts | 293° |
| 2026-05-04 22:06 | 37.94342 | 23.95794 | 301 ft | 14 kts | 216° |
| 2026-05-04 22:06 | 37.94255 | 23.95713 | 301 ft | 18 kts | 216° |
| 2026-05-04 22:06 | 37.94156 | 23.95619 | 302 ft | 15 kts | 216° |
| 2026-05-04 22:06 | 37.94164 | 23.95501 | 300 ft | 16 kts | 304° |
| 2026-05-04 22:07 | 37.94149 | 23.95408 | 303 ft | 0 kts | 213° |
| 2026-05-04 22:07 | 37.94138 | 23.95399 | 302 ft | 3 kts | 216° |
| 2026-05-04 22:07 | 37.94120 | 23.95382 | 304 ft | 2 kts | 217° |
| 2026-05-04 22:07 | 37.94112 | 23.95374 | 302 ft | 0 kts | 218° |